Registro, Brazil
Current Conditions -  °F | °C
As of 2:00 AM on Thursday 18 Dec 2014 (Local Time) from SBSP Reporting Station
Clear Clear  
Wind Chill: 66°   Ceiling: Unl
Heat Index: 66°   Visibility: 6mi
Dew Point: 59°   Wind: 2mph
Humidity: 78%   Direction: 20°NNE
Pressure: 29.94"   Gusts: NA
Location:  24.49°S, 47.84°W
Report Text: SBSP 180400Z 02002KT CAVOK 19/15 Q1014
Loading
Personal Weather Stations






























Interactive Weather Map New forecast layout! Learn more

10-Day Weather Forecast

Advertisements
Track Severe Weather on mobile